sensor_id;sensor_type;location;lat;lon;timestamp;P1;durP1;ratioP1;P2;durP2;ratioP2
55210;SDS011;41082;52.822;6.666;2024-03-23T00:56:12;31.55;;;6.10;;
55210;SDS011;41082;52.822;6.666;2024-03-23T00:58:38;32.22;;;4.78;;
55210;SDS011;41082;52.822;6.666;2024-03-23T01:01:04;21.48;;;4.43;;
55210;SDS011;41082;52.822;6.666;2024-03-23T01:03:30;30.38;;;4.32;;
55210;SDS011;41082;52.822;6.666;2024-03-23T01:06:02;27.15;;;4.28;;
55210;SDS011;41082;52.822;6.666;2024-03-23T01:08:29;22.27;;;4.18;;
55210;SDS011;41082;52.822;6.666;2024-03-23T01:10:58;24.67;;;4.47;;
55210;SDS011;41082;52.822;6.666;2024-03-23T01:13:25;30.27;;;5.20;;
55210;SDS011;41082;52.822;6.666;2024-03-23T01:15:52;34.63;;;5.65;;
55210;SDS011;41082;52.822;6.666;2024-03-23T01:18:19;29.67;;;5.65;;
55210;SDS011;41082;52.822;6.666;2024-03-23T01:20:45;26.60;;;4.05;;
55210;SDS011;41082;52.822;6.666;2024-03-23T01:23:11;22.27;;;4.32;;
55210;SDS011;41082;52.822;6.666;2024-03-23T01:25:37;28.85;;;4.80;;
55210;SDS011;41082;52.822;6.666;2024-03-23T01:28:02;26.33;;;4.72;;
55210;SDS011;41082;52.822;6.666;2024-03-23T01:30:28;25.50;;;4.82;;
55210;SDS011;41082;52.822;6.666;2024-03-23T01:32:55;22.75;;;4.25;;
55210;SDS011;41082;52.822;6.666;2024-03-23T01:35:21;22.95;;;4.90;;
55210;SDS011;41082;52.822;6.666;2024-03-23T01:37:46;32.88;;;4.60;;
55210;SDS011;41082;52.822;6.666;2024-03-23T01:40:12;21.30;;;4.35;;
55210;SDS011;41082;52.822;6.666;2024-03-23T01:42:40;31.38;;;5.22;;
55210;SDS011;41082;52.822;6.666;2024-03-23T01:45:07;27.52;;;4.25;;
55210;SDS011;41082;52.822;6.666;2024-03-23T01:47:34;25.95;;;5.22;;
55210;SDS011;41082;52.822;6.666;2024-03-23T01:49:59;24.38;;;3.70;;
55210;SDS011;41082;52.822;6.666;2024-03-23T01:52:26;27.48;;;4.68;;
55210;SDS011;41082;52.822;6.666;2024-03-23T01:54:52;25.02;;;4.07;;
55210;SDS011;41082;52.822;6.666;2024-03-23T01:57:18;21.65;;;3.60;;
55210;SDS011;41082;52.822;6.666;2024-03-23T01:59:46;23.10;;;3.70;;
55210;SDS011;41082;52.822;6.666;2024-03-23T02:02:13;20.20;;;4.00;;
55210;SDS011;41082;52.822;6.666;2024-03-23T02:04:38;21.27;;;3.88;;
55210;SDS011;41082;52.822;6.666;2024-03-23T02:07:06;19.17;;;3.47;;
55210;SDS011;41082;52.822;6.666;2024-03-23T02:09:32;19.33;;;3.17;;
55210;SDS011;41082;52.822;6.666;2024-03-23T02:11:58;27.48;;;4.45;;
55210;SDS011;41082;52.822;6.666;2024-03-23T02:14:26;21.98;;;4.05;;
55210;SDS011;41082;52.822;6.666;2024-03-23T02:16:52;25.25;;;4.00;;
55210;SDS011;41082;52.822;6.666;2024-03-23T02:19:17;21.33;;;3.35;;
55210;SDS011;41082;52.822;6.666;2024-03-23T02:21:43;18.33;;;3.58;;
55210;SDS011;41082;52.822;6.666;2024-03-23T02:24:09;28.05;;;3.83;;
55210;SDS011;41082;52.822;6.666;2024-03-23T02:26:35;20.13;;;3.75;;
55210;SDS011;41082;52.822;6.666;2024-03-23T02:29:00;24.52;;;3.55;;
55210;SDS011;41082;52.822;6.666;2024-03-23T02:31:26;25.17;;;4.63;;
55210;SDS011;41082;52.822;6.666;2024-03-23T02:33:52;25.42;;;4.60;;
55210;SDS011;41082;52.822;6.666;2024-03-23T02:36:17;24.52;;;3.75;;
55210;SDS011;41082;52.822;6.666;2024-03-23T02:38:43;20.42;;;3.60;;
55210;SDS011;41082;52.822;6.666;2024-03-23T02:41:10;27.23;;;4.45;;
55210;SDS011;41082;52.822;6.666;2024-03-23T02:43:35;24.33;;;4.03;;
55210;SDS011;41082;52.822;6.666;2024-03-23T02:46:01;26.65;;;3.53;;
55210;SDS011;41082;52.822;6.666;2024-03-23T02:48:28;25.48;;;3.97;;
55210;SDS011;41082;52.822;6.666;2024-03-23T02:50:53;23.60;;;3.30;;
55210;SDS011;41082;52.822;6.666;2024-03-23T02:53:19;19.33;;;3.60;;
55210;SDS011;41082;52.822;6.666;2024-03-23T02:55:45;19.70;;;3.70;;
55210;SDS011;41082;52.822;6.666;2024-03-23T02:58:10;20.25;;;3.40;;
55210;SDS011;41082;52.822;6.666;2024-03-23T03:00:36;21.75;;;4.13;;
55210;SDS011;41082;52.822;6.666;2024-03-23T03:03:02;26.10;;;3.97;;
55210;SDS011;41082;52.822;6.666;2024-03-23T03:05:28;27.60;;;3.78;;
55210;SDS011;41082;52.822;6.666;2024-03-23T03:07:54;23.15;;;3.33;;
55210;SDS011;41082;52.822;6.666;2024-03-23T03:10:19;24.58;;;3.75;;
55210;SDS011;41082;52.822;6.666;2024-03-23T03:12:45;23.13;;;3.53;;
55210;SDS011;41082;52.822;6.666;2024-03-23T03:15:11;28.52;;;4.05;;
55210;SDS011;41082;52.822;6.666;2024-03-23T03:17:37;23.83;;;4.03;;
55210;SDS011;41082;52.822;6.666;2024-03-23T03:20:03;20.17;;;3.90;;
55210;SDS011;41082;52.822;6.666;2024-03-23T03:22:30;19.38;;;3.33;;
55210;SDS011;41082;52.822;6.666;2024-03-23T03:24:55;20.48;;;4.15;;
55210;SDS011;41082;52.822;6.666;2024-03-23T03:27:21;32.28;;;4.63;;
55210;SDS011;41082;52.822;6.666;2024-03-23T03:29:48;26.83;;;3.20;;
55210;SDS011;41082;52.822;6.666;2024-03-23T03:32:13;17.23;;;3.25;;
55210;SDS011;41082;52.822;6.666;2024-03-23T03:34:39;27.17;;;4.30;;
55210;SDS011;41082;52.822;6.666;2024-03-23T03:37:05;25.90;;;4.78;;
55210;SDS011;41082;52.822;6.666;2024-03-23T03:39:30;22.65;;;3.72;;
55210;SDS011;41082;52.822;6.666;2024-03-23T03:41:56;29.42;;;4.40;;
55210;SDS011;41082;52.822;6.666;2024-03-23T03:44:22;25.45;;;4.55;;
55210;SDS011;41082;52.822;6.666;2024-03-23T03:46:47;23.35;;;3.25;;
55210;SDS011;41082;52.822;6.666;2024-03-23T03:49:13;23.50;;;4.22;;
55210;SDS011;41082;52.822;6.666;2024-03-23T03:51:38;22.02;;;3.67;;
55210;SDS011;41082;52.822;6.666;2024-03-23T03:54:04;28.70;;;3.63;;
55210;SDS011;41082;52.822;6.666;2024-03-23T03:56:30;20.98;;;3.95;;
55210;SDS011;41082;52.822;6.666;2024-03-23T03:58:55;18.50;;;3.67;;
55210;SDS011;41082;52.822;6.666;2024-03-23T04:01:21;20.77;;;3.38;;
55210;SDS011;41082;52.822;6.666;2024-03-23T04:03:47;21.02;;;3.00;;
55210;SDS011;41082;52.822;6.666;2024-03-23T04:06:18;17.67;;;3.40;;
55210;SDS011;41082;52.822;6.666;2024-03-23T04:08:45;21.83;;;3.22;;
55210;SDS011;41082;52.822;6.666;2024-03-23T04:11:11;21.08;;;3.30;;
55210;SDS011;41082;52.822;6.666;2024-03-23T04:13:36;21.60;;;3.72;;
55210;SDS011;41082;52.822;6.666;2024-03-23T04:16:02;22.45;;;3.40;;
55210;SDS011;41082;52.822;6.666;2024-03-23T04:18:28;18.60;;;3.45;;
55210;SDS011;41082;52.822;6.666;2024-03-23T04:20:54;22.13;;;3.50;;
55210;SDS011;41082;52.822;6.666;2024-03-23T04:23:20;17.35;;;3.47;;
55210;SDS011;41082;52.822;6.666;2024-03-23T04:25:46;19.48;;;4.00;;
55210;SDS011;41082;52.822;6.666;2024-03-23T04:28:12;29.23;;;3.70;;
55210;SDS011;41082;52.822;6.666;2024-03-23T04:30:37;20.70;;;3.38;;
55210;SDS011;41082;52.822;6.666;2024-03-23T04:33:03;20.27;;;2.75;;
55210;SDS011;41082;52.822;6.666;2024-03-23T04:35:30;24.60;;;4.07;;
55210;SDS011;41082;52.822;6.666;2024-03-23T04:37:56;19.13;;;3.33;;
55210;SDS011;41082;52.822;6.666;2024-03-23T04:40:23;18.77;;;3.17;;
55210;SDS011;41082;52.822;6.666;2024-03-23T04:42:49;22.17;;;2.90;;
55210;SDS011;41082;52.822;6.666;2024-03-23T04:45:15;21.15;;;3.20;;
55210;SDS011;41082;52.822;6.666;2024-03-23T04:47:40;18.92;;;3.80;;
55210;SDS011;41082;52.822;6.666;2024-03-23T04:50:06;21.83;;;2.97;;
55210;SDS011;41082;52.822;6.666;2024-03-23T04:52:32;20.17;;;3.35;;
55210;SDS011;41082;52.822;6.666;2024-03-23T04:54:58;22.67;;;4.72;;
55210;SDS011;41082;52.822;6.666;2024-03-23T04:57:24;20.63;;;3.50;;
55210;SDS011;41082;52.822;6.666;2024-03-23T04:59:49;20.52;;;3.80;;
55210;SDS011;41082;52.822;6.666;2024-03-23T05:02:15;25.23;;;3.42;;
55210;SDS011;41082;52.822;6.666;2024-03-23T05:04:41;16.58;;;3.22;;
55210;SDS011;41082;52.822;6.666;2024-03-23T05:07:07;18.95;;;3.10;;
55210;SDS011;41082;52.822;6.666;2024-03-23T05:09:33;15.35;;;2.63;;
55210;SDS011;41082;52.822;6.666;2024-03-23T05:12:01;24.38;;;3.20;;
55210;SDS011;41082;52.822;6.666;2024-03-23T05:14:27;23.38;;;3.50;;
55210;SDS011;41082;52.822;6.666;2024-03-23T05:16:53;19.88;;;2.70;;
55210;SDS011;41082;52.822;6.666;2024-03-23T05:19:19;24.83;;;3.33;;
55210;SDS011;41082;52.822;6.666;2024-03-23T05:21:45;17.88;;;2.22;;
55210;SDS011;41082;52.822;6.666;2024-03-23T05:24:11;19.90;;;2.80;;
55210;SDS011;41082;52.822;6.666;2024-03-23T05:26:37;18.67;;;3.47;;
55210;SDS011;41082;52.822;6.666;2024-03-23T05:29:03;13.65;;;2.60;;
55210;SDS011;41082;52.822;6.666;2024-03-23T05:31:30;21.30;;;2.95;;
55210;SDS011;41082;52.822;6.666;2024-03-23T05:33:57;21.67;;;3.22;;
55210;SDS011;41082;52.822;6.666;2024-03-23T05:36:22;22.52;;;3.13;;
55210;SDS011;41082;52.822;6.666;2024-03-23T05:38:51;20.67;;;2.83;;
55210;SDS011;41082;52.822;6.666;2024-03-23T05:41:16;12.68;;;2.28;;
55210;SDS011;41082;52.822;6.666;2024-03-23T05:43:42;16.63;;;2.85;;
55210;SDS011;41082;52.822;6.666;2024-03-23T05:46:08;17.48;;;2.75;;
55210;SDS011;41082;52.822;6.666;2024-03-23T05:48:34;17.25;;;3.10;;
55210;SDS011;41082;52.822;6.666;2024-03-23T05:50:59;20.77;;;3.03;;
55210;SDS011;41082;52.822;6.666;2024-03-23T05:53:25;18.40;;;2.55;;
55210;SDS011;41082;52.822;6.666;2024-03-23T05:55:51;19.05;;;2.83;;
55210;SDS011;41082;52.822;6.666;2024-03-23T05:58:25;22.63;;;2.72;;
55210;SDS011;41082;52.822;6.666;2024-03-23T06:00:56;23.17;;;2.72;;
55210;SDS011;41082;52.822;6.666;2024-03-23T06:03:24;21.25;;;2.65;;
55210;SDS011;41082;52.822;6.666;2024-03-23T06:05:50;20.52;;;2.50;;
55210;SDS011;41082;52.822;6.666;2024-03-23T06:08:16;14.80;;;2.17;;
55210;SDS011;41082;52.822;6.666;2024-03-23T06:10:42;19.65;;;2.58;;
55210;SDS011;41082;52.822;6.666;2024-03-23T06:13:07;20.30;;;3.05;;
55210;SDS011;41082;52.822;6.666;2024-03-23T06:15:33;20.02;;;3.15;;
55210;SDS011;41082;52.822;6.666;2024-03-23T06:18:02;24.75;;;2.70;;
55210;SDS011;41082;52.822;6.666;2024-03-23T06:20:33;23.42;;;3.00;;
55210;SDS011;41082;52.822;6.666;2024-03-23T06:22:59;24.10;;;4.55;;
55210;SDS011;41082;52.822;6.666;2024-03-23T06:25:26;13.50;;;2.13;;
55210;SDS011;41082;52.822;6.666;2024-03-23T06:27:52;23.42;;;2.70;;
55210;SDS011;41082;52.822;6.666;2024-03-23T06:30:18;20.70;;;2.63;;
55210;SDS011;41082;52.822;6.666;2024-03-23T06:32:43;18.77;;;2.13;;
55210;SDS011;41082;52.822;6.666;2024-03-23T06:35:10;15.18;;;1.67;;
55210;SDS011;41082;52.822;6.666;2024-03-23T06:37:35;14.40;;;1.65;;
55210;SDS011;41082;52.822;6.666;2024-03-23T06:40:01;12.73;;;2.47;;
55210;SDS011;41082;52.822;6.666;2024-03-23T06:42:27;10.77;;;1.52;;
55210;SDS011;41082;52.822;6.666;2024-03-23T06:44:53;11.68;;;2.03;;
55210;SDS011;41082;52.822;6.666;2024-03-23T06:47:19;11.13;;;1.40;;
55210;SDS011;41082;52.822;6.666;2024-03-23T06:49:44;12.02;;;1.17;;
55210;SDS011;41082;52.822;6.666;2024-03-23T06:52:10;10.45;;;1.25;;
55210;SDS011;41082;52.822;6.666;2024-03-23T06:54:36;12.40;;;1.30;;
55210;SDS011;41082;52.822;6.666;2024-03-23T06:57:01;13.43;;;1.40;;
55210;SDS011;41082;52.822;6.666;2024-03-23T06:59:28;13.77;;;1.20;;
55210;SDS011;41082;52.822;6.666;2024-03-23T07:01:53;10.02;;;1.02;;
55210;SDS011;41082;52.822;6.666;2024-03-23T07:04:19;11.02;;;1.20;;
55210;SDS011;41082;52.822;6.666;2024-03-23T07:06:45;12.50;;;1.50;;
55210;SDS011;41082;52.822;6.666;2024-03-23T07:09:11;7.40;;;1.30;;
55210;SDS011;41082;52.822;6.666;2024-03-23T07:11:37;12.77;;;1.15;;
55210;SDS011;41082;52.822;6.666;2024-03-23T07:14:03;11.32;;;1.30;;
55210;SDS011;41082;52.822;6.666;2024-03-23T07:16:29;11.25;;;1.88;;
55210;SDS011;41082;52.822;6.666;2024-03-23T07:18:54;11.38;;;1.88;;
55210;SDS011;41082;52.822;6.666;2024-03-23T07:21:20;10.23;;;1.40;;
55210;SDS011;41082;52.822;6.666;2024-03-23T07:23:47;5.03;;;0.80;;
55210;SDS011;41082;52.822;6.666;2024-03-23T07:26:12;11.25;;;1.10;;
55210;SDS011;41082;52.822;6.666;2024-03-23T07:28:38;13.60;;;1.45;;
55210;SDS011;41082;52.822;6.666;2024-03-23T07:31:09;7.95;;;1.15;;
55210;SDS011;41082;52.822;6.666;2024-03-23T07:33:37;10.38;;;1.10;;
55210;SDS011;41082;52.822;6.666;2024-03-23T07:36:06;9.82;;;1.30;;
55210;SDS011;41082;52.822;6.666;2024-03-23T07:38:32;7.72;;;1.20;;
55210;SDS011;41082;52.822;6.666;2024-03-23T07:43:33;7.75;;;1.30;;
55210;SDS011;41082;52.822;6.666;2024-03-23T07:46:00;9.02;;;1.10;;
55210;SDS011;41082;52.822;6.666;2024-03-23T07:48:26;9.75;;;1.65;;
55210;SDS011;41082;52.822;6.666;2024-03-23T07:51:26;17.98;;;2.22;;
55210;SDS011;41082;52.822;6.666;2024-03-23T07:53:48;11.50;;;1.20;;
55210;SDS011;41082;52.822;6.666;2024-03-23T07:56:14;11.93;;;2.17;;
55210;SDS011;41082;52.822;6.666;2024-03-23T07:58:41;12.70;;;1.42;;
55210;SDS011;41082;52.822;6.666;2024-03-23T08:01:11;11.65;;;1.45;;
55210;SDS011;41082;52.822;6.666;2024-03-23T08:03:39;13.13;;;1.65;;
55210;SDS011;41082;52.822;6.666;2024-03-23T08:06:12;9.02;;;1.00;;
55210;SDS011;41082;52.822;6.666;2024-03-23T08:08:39;7.00;;;1.42;;
55210;SDS011;41082;52.822;6.666;2024-03-23T08:11:06;5.00;;;0.73;;
55210;SDS011;41082;52.822;6.666;2024-03-23T08:13:32;10.75;;;1.10;;
55210;SDS011;41082;52.822;6.666;2024-03-23T08:15:59;9.05;;;1.00;;
55210;SDS011;41082;52.822;6.666;2024-03-23T08:18:26;6.72;;;1.17;;
55210;SDS011;41082;52.822;6.666;2024-03-23T08:21:10;9.65;;;0.90;;
55210;SDS011;41082;52.822;6.666;2024-03-23T08:23:35;10.32;;;1.52;;
55210;SDS011;41082;52.822;6.666;2024-03-23T08:26:09;11.02;;;1.60;;
55210;SDS011;41082;52.822;6.666;2024-03-23T08:28:36;11.80;;;0.90;;
55210;SDS011;41082;52.822;6.666;2024-03-23T08:31:10;8.68;;;0.77;;
55210;SDS011;41082;52.822;6.666;2024-03-23T08:33:37;5.80;;;0.45;;
55210;SDS011;41082;52.822;6.666;2024-03-23T08:36:07;4.10;;;0.45;;
55210;SDS011;41082;52.822;6.666;2024-03-23T08:38:33;7.82;;;0.70;;
55210;SDS011;41082;52.822;6.666;2024-03-23T08:41:00;5.28;;;0.45;;
55210;SDS011;41082;52.822;6.666;2024-03-23T08:43:27;7.18;;;1.02;;
55210;SDS011;41082;52.822;6.666;2024-03-23T08:46:03;7.13;;;0.65;;
55210;SDS011;41082;52.822;6.666;2024-03-23T08:48:34;8.18;;;0.60;;
55210;SDS011;41082;52.822;6.666;2024-03-23T08:51:01;7.45;;;0.85;;
55210;SDS011;41082;52.822;6.666;2024-03-23T08:53:34;7.95;;;0.80;;
55210;SDS011;41082;52.822;6.666;2024-03-23T08:56:00;8.57;;;0.60;;
55210;SDS011;41082;52.822;6.666;2024-03-23T08:58:27;8.45;;;0.98;;
55210;SDS011;41082;52.822;6.666;2024-03-23T09:00:54;11.25;;;1.17;;
55210;SDS011;41082;52.822;6.666;2024-03-23T09:03:22;11.90;;;1.38;;
55210;SDS011;41082;52.822;6.666;2024-03-23T09:05:48;7.53;;;1.08;;
55210;SDS011;41082;52.822;6.666;2024-03-23T09:08:14;8.77;;;0.90;;
55210;SDS011;41082;52.822;6.666;2024-03-23T09:10:40;5.47;;;0.60;;
55210;SDS011;41082;52.822;6.666;2024-03-23T09:13:07;5.93;;;0.68;;
55210;SDS011;41082;52.822;6.666;2024-03-23T09:15:36;5.78;;;0.50;;
55210;SDS011;41082;52.822;6.666;2024-03-23T09:18:03;5.25;;;0.65;;
55210;SDS011;41082;52.822;6.666;2024-03-23T09:20:32;9.73;;;1.20;;
55210;SDS011;41082;52.822;6.666;2024-03-23T09:22:58;7.43;;;0.50;;
55210;SDS011;41082;52.822;6.666;2024-03-23T09:25:24;5.40;;;0.70;;
55210;SDS011;41082;52.822;6.666;2024-03-23T09:27:50;12.18;;;1.20;;
55210;SDS011;41082;52.822;6.666;2024-03-23T09:30:16;12.25;;;0.80;;
55210;SDS011;41082;52.822;6.666;2024-03-23T09:32:43;5.20;;;0.85;;
55210;SDS011;41082;52.822;6.666;2024-03-23T09:35:09;5.68;;;0.50;;
55210;SDS011;41082;52.822;6.666;2024-03-23T09:37:36;6.63;;;0.82;;
55210;SDS011;41082;52.822;6.666;2024-03-23T09:40:04;6.80;;;0.50;;
55210;SDS011;41082;52.822;6.666;2024-03-23T09:42:32;8.27;;;0.50;;
55210;SDS011;41082;52.822;6.666;2024-03-23T09:44:59;8.57;;;0.75;;
55210;SDS011;41082;52.822;6.666;2024-03-23T09:47:25;6.95;;;0.60;;
55210;SDS011;41082;52.822;6.666;2024-03-23T09:49:51;6.20;;;0.88;;
55210;SDS011;41082;52.822;6.666;2024-03-23T09:52:17;8.40;;;0.65;;
55210;SDS011;41082;52.822;6.666;2024-03-23T09:54:43;9.98;;;1.25;;
55210;SDS011;41082;52.822;6.666;2024-03-23T09:57:08;8.90;;;0.80;;
55210;SDS011;41082;52.822;6.666;2024-03-23T09:59:34;11.18;;;0.88;;
55210;SDS011;41082;52.822;6.666;2024-03-23T10:02:03;7.50;;;1.15;;
55210;SDS011;41082;52.822;6.666;2024-03-23T10:04:36;11.90;;;1.15;;
55210;SDS011;41082;52.822;6.666;2024-03-23T10:07:12;8.30;;;0.90;;
55210;SDS011;41082;52.822;6.666;2024-03-23T10:09:43;10.82;;;1.83;;
55210;SDS011;41082;52.822;6.666;2024-03-23T10:12:13;8.40;;;0.57;;
55210;SDS011;41082;52.822;6.666;2024-03-23T10:14:43;4.50;;;0.30;;
55210;SDS011;41082;52.822;6.666;2024-03-23T10:17:12;5.63;;;0.35;;
55210;SDS011;41082;52.822;6.666;2024-03-23T10:19:49;7.15;;;0.50;;
55210;SDS011;41082;52.822;6.666;2024-03-23T10:22:21;5.93;;;0.50;;
55210;SDS011;41082;52.822;6.666;2024-03-23T10:24:48;2.25;;;0.20;;
55210;SDS011;41082;52.822;6.666;2024-03-23T10:27:17;1.10;;;0.00;;
55210;SDS011;41082;52.822;6.666;2024-03-23T10:29:48;1.63;;;0.13;;
55210;SDS011;41082;52.822;6.666;2024-03-23T10:32:16;3.05;;;0.10;;
55210;SDS011;41082;52.822;6.666;2024-03-23T10:34:43;1.08;;;0.10;;
55210;SDS011;41082;52.822;6.666;2024-03-23T10:37:09;1.10;;;0.00;;
55210;SDS011;41082;52.822;6.666;2024-03-23T10:39:36;2.45;;;0.20;;
55210;SDS011;41082;52.822;6.666;2024-03-23T10:42:03;3.72;;;0.32;;
55210;SDS011;41082;52.822;6.666;2024-03-23T10:44:33;4.50;;;0.50;;
55210;SDS011;41082;52.822;6.666;2024-03-23T10:47:00;3.40;;;0.32;;
55210;SDS011;41082;52.822;6.666;2024-03-23T10:49:30;6.32;;;0.50;;
55210;SDS011;41082;52.822;6.666;2024-03-23T10:52:00;11.13;;;1.58;;
55210;SDS011;41082;52.822;6.666;2024-03-23T10:54:28;7.25;;;0.30;;
55210;SDS011;41082;52.822;6.666;2024-03-23T10:57:03;9.48;;;0.75;;
55210;SDS011;41082;52.822;6.666;2024-03-23T10:59:36;9.27;;;1.08;;
55210;SDS011;41082;52.822;6.666;2024-03-23T11:02:03;11.90;;;0.98;;
55210;SDS011;41082;52.822;6.666;2024-03-23T11:04:33;12.15;;;0.95;;
55210;SDS011;41082;52.822;6.666;2024-03-23T11:06:59;8.73;;;1.00;;
55210;SDS011;41082;52.822;6.666;2024-03-23T11:14:52;5.28;;;0.57;;
55210;SDS011;41082;52.822;6.666;2024-03-23T11:17:20;3.25;;;0.30;;
55210;SDS011;41082;52.822;6.666;2024-03-23T11:19:56;3.88;;;0.35;;
55210;SDS011;41082;52.822;6.666;2024-03-23T11:25:18;6.43;;;0.73;;
55210;SDS011;41082;52.822;6.666;2024-03-23T11:27:51;3.45;;;0.20;;
55210;SDS011;41082;52.822;6.666;2024-03-23T11:30:19;10.80;;;0.75;;
55210;SDS011;41082;52.822;6.666;2024-03-23T11:32:49;3.78;;;0.63;;
55210;SDS011;41082;52.822;6.666;2024-03-23T11:40:42;7.95;;;0.63;;
55210;SDS011;41082;52.822;6.666;2024-03-23T11:43:09;5.38;;;0.50;;
55210;SDS011;41082;52.822;6.666;2024-03-23T11:45:38;5.20;;;0.65;;
55210;SDS011;41082;52.822;6.666;2024-03-23T11:48:06;8.95;;;0.82;;
55210;SDS011;41082;52.822;6.666;2024-03-23T11:50:37;5.22;;;0.68;;
55210;SDS011;41082;52.822;6.666;2024-03-23T11:53:06;7.80;;;0.90;;
55210;SDS011;41082;52.822;6.666;2024-03-23T11:58:23;11.50;;;1.00;;
55210;SDS011;41082;52.822;6.666;2024-03-23T12:00:56;9.75;;;0.70;;
55210;SDS011;41082;52.822;6.666;2024-03-23T12:03:29;10.43;;;0.90;;
55210;SDS011;41082;52.822;6.666;2024-03-23T12:05:58;6.07;;;0.43;;
55210;SDS011;41082;52.822;6.666;2024-03-23T12:08:33;9.93;;;0.98;;
55210;SDS011;41082;52.822;6.666;2024-03-23T12:11:10;9.10;;;0.73;;
55210;SDS011;41082;52.822;6.666;2024-03-23T12:13:37;6.10;;;0.68;;
55210;SDS011;41082;52.822;6.666;2024-03-23T12:18:39;6.72;;;0.90;;
55210;SDS011;41082;52.822;6.666;2024-03-23T12:21:12;7.72;;;0.98;;
55210;SDS011;41082;52.822;6.666;2024-03-23T12:23:41;10.00;;;0.82;;
55210;SDS011;41082;52.822;6.666;2024-03-23T12:26:09;6.32;;;1.05;;
55210;SDS011;41082;52.822;6.666;2024-03-23T12:28:35;7.68;;;1.23;;
55210;SDS011;41082;52.822;6.666;2024-03-23T12:31:02;6.60;;;0.70;;
55210;SDS011;41082;52.822;6.666;2024-03-23T12:33:28;9.05;;;1.23;;
55210;SDS011;41082;52.822;6.666;2024-03-23T12:35:54;10.57;;;1.25;;
55210;SDS011;41082;52.822;6.666;2024-03-23T12:38:19;8.20;;;1.02;;
55210;SDS011;41082;52.822;6.666;2024-03-23T12:40:49;8.05;;;0.70;;
55210;SDS011;41082;52.822;6.666;2024-03-23T12:43:15;8.95;;;0.68;;
55210;SDS011;41082;52.822;6.666;2024-03-23T12:45:48;10.93;;;0.93;;
55210;SDS011;41082;52.822;6.666;2024-03-23T12:48:14;8.57;;;1.73;;
55210;SDS011;41082;52.822;6.666;2024-03-23T12:50:40;10.48;;;1.67;;
55210;SDS011;41082;52.822;6.666;2024-03-23T12:53:06;8.60;;;0.98;;
55210;SDS011;41082;52.822;6.666;2024-03-23T12:55:32;7.68;;;0.98;;
55210;SDS011;41082;52.822;6.666;2024-03-23T12:57:59;11.80;;;1.15;;
55210;SDS011;41082;52.822;6.666;2024-03-23T13:00:25;14.13;;;1.20;;
55210;SDS011;41082;52.822;6.666;2024-03-23T13:02:51;9.40;;;1.23;;
55210;SDS011;41082;52.822;6.666;2024-03-23T13:05:16;8.43;;;1.10;;
55210;SDS011;41082;52.822;6.666;2024-03-23T13:07:42;10.18;;;1.50;;
55210;SDS011;41082;52.822;6.666;2024-03-23T13:10:08;10.05;;;0.88;;
55210;SDS011;41082;52.822;6.666;2024-03-23T13:12:34;10.27;;;1.15;;
55210;SDS011;41082;52.822;6.666;2024-03-23T13:15:00;6.72;;;0.65;;
55210;SDS011;41082;52.822;6.666;2024-03-23T13:17:26;8.10;;;0.50;;
55210;SDS011;41082;52.822;6.666;2024-03-23T13:19:53;4.85;;;0.38;;
55210;SDS011;41082;52.822;6.666;2024-03-23T13:22:21;5.47;;;0.50;;
55210;SDS011;41082;52.822;6.666;2024-03-23T13:24:47;7.07;;;0.65;;
55210;SDS011;41082;52.822;6.666;2024-03-23T13:27:13;8.00;;;0.50;;
55210;SDS011;41082;52.822;6.666;2024-03-23T13:29:38;4.07;;;0.40;;
55210;SDS011;41082;52.822;6.666;2024-03-23T13:32:04;7.10;;;0.65;;
55210;SDS011;41082;52.822;6.666;2024-03-23T13:34:31;3.88;;;0.50;;
55210;SDS011;41082;52.822;6.666;2024-03-23T13:36:56;8.50;;;0.70;;
55210;SDS011;41082;52.822;6.666;2024-03-23T13:39:23;6.90;;;1.02;;
55210;SDS011;41082;52.822;6.666;2024-03-23T13:41:49;6.15;;;0.55;;
55210;SDS011;41082;52.822;6.666;2024-03-23T13:44:14;3.25;;;0.40;;
55210;SDS011;41082;52.822;6.666;2024-03-23T13:46:41;4.03;;;1.10;;
55210;SDS011;41082;52.822;6.666;2024-03-23T13:49:12;6.07;;;0.40;;
55210;SDS011;41082;52.822;6.666;2024-03-23T13:51:48;2.20;;;0.30;;
55210;SDS011;41082;52.822;6.666;2024-03-23T13:54:13;4.63;;;0.43;;
55210;SDS011;41082;52.822;6.666;2024-03-23T13:56:39;5.15;;;0.50;;
55210;SDS011;41082;52.822;6.666;2024-03-23T13:59:05;8.70;;;0.90;;
55210;SDS011;41082;52.822;6.666;2024-03-23T14:01:31;7.47;;;0.82;;
55210;SDS011;41082;52.822;6.666;2024-03-23T14:03:56;5.35;;;0.57;;
55210;SDS011;41082;52.822;6.666;2024-03-23T14:06:22;6.22;;;0.75;;
55210;SDS011;41082;52.822;6.666;2024-03-23T14:08:49;8.50;;;0.90;;
55210;SDS011;41082;52.822;6.666;2024-03-23T14:11:17;8.02;;;0.85;;
55210;SDS011;41082;52.822;6.666;2024-03-23T14:13:44;12.73;;;0.98;;
55210;SDS011;41082;52.822;6.666;2024-03-23T14:16:09;9.68;;;1.02;;
55210;SDS011;41082;52.822;6.666;2024-03-23T14:18:35;9.35;;;0.88;;
55210;SDS011;41082;52.822;6.666;2024-03-23T14:21:01;5.95;;;0.98;;
55210;SDS011;41082;52.822;6.666;2024-03-23T14:23:28;5.35;;;1.10;;
55210;SDS011;41082;52.822;6.666;2024-03-23T14:25:55;9.75;;;1.15;;
55210;SDS011;41082;52.822;6.666;2024-03-23T14:28:22;7.43;;;0.70;;
55210;SDS011;41082;52.822;6.666;2024-03-23T14:30:48;6.95;;;0.57;;
55210;SDS011;41082;52.822;6.666;2024-03-23T14:33:15;10.30;;;1.20;;
55210;SDS011;41082;52.822;6.666;2024-03-23T14:35:42;9.95;;;2.22;;
55210;SDS011;41082;52.822;6.666;2024-03-23T14:38:07;7.68;;;0.98;;
55210;SDS011;41082;52.822;6.666;2024-03-23T14:40:33;4.90;;;0.70;;
55210;SDS011;41082;52.822;6.666;2024-03-23T14:42:59;5.47;;;0.40;;
55210;SDS011;41082;52.822;6.666;2024-03-23T14:45:25;3.13;;;0.20;;
55210;SDS011;41082;52.822;6.666;2024-03-23T14:47:51;3.83;;;0.30;;
55210;SDS011;41082;52.822;6.666;2024-03-23T14:50:16;5.53;;;0.20;;
55210;SDS011;41082;52.822;6.666;2024-03-23T14:52:46;3.85;;;0.80;;
55210;SDS011;41082;52.822;6.666;2024-03-23T14:55:11;3.53;;;0.20;;
55210;SDS011;41082;52.822;6.666;2024-03-23T14:57:38;2.50;;;0.40;;
55210;SDS011;41082;52.822;6.666;2024-03-23T15:00:07;3.28;;;0.13;;
55210;SDS011;41082;52.822;6.666;2024-03-23T15:02:36;4.43;;;0.25;;
55210;SDS011;41082;52.822;6.666;2024-03-23T15:05:02;6.78;;;0.40;;
55210;SDS011;41082;52.822;6.666;2024-03-23T15:07:30;2.92;;;0.40;;
55210;SDS011;41082;52.822;6.666;2024-03-23T15:09:56;5.22;;;0.40;;
55210;SDS011;41082;52.822;6.666;2024-03-23T15:12:21;8.00;;;0.57;;
55210;SDS011;41082;52.822;6.666;2024-03-23T15:14:47;9.98;;;0.70;;
55210;SDS011;41082;52.822;6.666;2024-03-23T15:17:13;8.05;;;0.47;;
55210;SDS011;41082;52.822;6.666;2024-03-23T15:19:39;6.45;;;0.70;;
55210;SDS011;41082;52.822;6.666;2024-03-23T15:22:06;5.85;;;0.90;;
55210;SDS011;41082;52.822;6.666;2024-03-23T15:24:33;8.90;;;0.45;;
55210;SDS011;41082;52.822;6.666;2024-03-23T15:27:01;8.02;;;0.85;;
55210;SDS011;41082;52.822;6.666;2024-03-23T15:29:27;10.95;;;0.65;;
55210;SDS011;41082;52.822;6.666;2024-03-23T15:31:53;4.88;;;0.50;;
55210;SDS011;41082;52.822;6.666;2024-03-23T15:34:19;7.60;;;0.73;;
55210;SDS011;41082;52.822;6.666;2024-03-23T15:36:47;14.13;;;1.20;;
55210;SDS011;41082;52.822;6.666;2024-03-23T15:39:16;10.88;;;2.35;;
55210;SDS011;41082;52.822;6.666;2024-03-23T15:41:45;5.18;;;0.70;;
55210;SDS011;41082;52.822;6.666;2024-03-23T15:44:11;7.20;;;0.45;;
55210;SDS011;41082;52.822;6.666;2024-03-23T15:46:37;8.27;;;1.52;;
55210;SDS011;41082;52.822;6.666;2024-03-23T15:49:03;5.60;;;0.52;;
55210;SDS011;41082;52.822;6.666;2024-03-23T15:51:30;10.77;;;1.00;;
55210;SDS011;41082;52.822;6.666;2024-03-23T15:54:00;8.13;;;1.00;;
55210;SDS011;41082;52.822;6.666;2024-03-23T15:56:26;10.73;;;1.77;;